createdAt,value
2023-02-27T00:01:40.586Z,78.08
2023-02-27T00:04:07.011Z,78.23
2023-02-27T00:06:33.431Z,78.47
2023-02-27T00:09:00.214Z,78.54
2023-02-27T00:11:27.045Z,79.06
2023-02-27T00:13:53.733Z,79.07
2023-02-27T00:16:20.179Z,79.63
2023-02-27T00:18:46.621Z,79.87
2023-02-27T00:21:13.009Z,80.59
2023-02-27T00:23:39.362Z,80.08
2023-02-27T00:26:05.702Z,78.93
2023-02-27T00:28:32.079Z,79.33
2023-02-27T00:30:58.552Z,79.94
2023-02-27T00:33:25.000Z,79.44
2023-02-27T00:35:58.888Z,79.37
2023-02-27T00:38:26.238Z,79.84
2023-02-27T00:40:52.606Z,79.46
2023-02-27T00:43:18.999Z,80.15
2023-02-27T00:45:45.542Z,80.34
2023-02-27T00:48:11.892Z,80.65
2023-02-27T00:50:38.586Z,80.62
2023-02-27T00:53:05.221Z,79.60
2023-02-27T00:55:31.680Z,79.88
2023-02-27T00:57:58.074Z,80.69
2023-02-27T01:00:24.870Z,79.89
2023-02-27T01:02:51.225Z,80.25
2023-02-27T01:05:18.166Z,80.60
2023-02-27T01:07:44.509Z,79.90
2023-02-27T01:10:11.905Z,80.78
2023-02-27T01:12:38.793Z,80.93
2023-02-27T01:15:06.715Z,80.89
2023-02-27T01:17:33.379Z,81.08
2023-02-27T01:19:59.776Z,81.36
2023-02-27T01:22:26.199Z,82.06
2023-02-27T01:24:52.579Z,82.36
2023-02-27T01:27:19.040Z,82.15
2023-02-27T01:29:45.493Z,82.51
2023-02-27T01:32:11.956Z,81.82
2023-02-27T01:34:38.360Z,81.81
2023-02-27T01:37:04.749Z,81.86
2023-02-27T01:39:32.888Z,81.44
2023-02-27T01:42:00.932Z,81.84
2023-02-27T01:44:29.943Z,81.72
2023-02-27T01:46:57.209Z,82.17
2023-02-27T01:49:29.065Z,82.30
2023-02-27T01:52:02.952Z,82.10
2023-02-27T01:54:32.039Z,82.17
2023-02-27T01:56:58.603Z,82.42
2023-02-27T01:59:25.049Z,82.05
2023-02-27T02:01:52.211Z,82.52
2023-02-27T02:04:27.782Z,82.72
2023-02-27T02:06:59.746Z,82.69
2023-02-27T02:09:27.671Z,82.68
2023-02-27T02:11:54.990Z,83.46
2023-02-27T02:14:21.616Z,83.32
2023-02-27T02:17:07.059Z,83.64
2023-02-27T02:19:55.316Z,83.59
2023-02-27T02:22:59.116Z,83.24
2023-02-27T02:26:03.308Z,83.46
2023-02-27T02:29:12.733Z,83.39
2023-02-27T02:32:21.178Z,84.09
2023-02-27T02:35:17.074Z,83.76
2023-02-27T02:38:14.505Z,84.02
2023-02-27T02:41:07.604Z,83.27
2023-02-27T02:43:58.273Z,84.21
2023-02-27T02:46:38.920Z,83.65
2023-02-27T02:49:26.773Z,83.37
2023-02-27T02:52:02.743Z,83.83
2023-02-27T02:54:42.014Z,84.07
2023-02-27T02:57:16.628Z,83.25
2023-02-27T02:59:56.923Z,83.65
2023-02-27T03:02:31.131Z,84.34
2023-02-27T03:05:08.547Z,83.70
2023-02-27T03:07:44.097Z,84.00
2023-02-27T03:10:30.478Z,83.38
2023-02-27T03:13:02.790Z,83.85
2023-02-27T03:15:36.335Z,83.23
2023-02-27T03:18:08.523Z,83.59
2023-02-27T03:20:42.706Z,83.39
2023-02-27T03:23:14.036Z,82.70
2023-02-27T03:25:46.050Z,82.89
2023-02-27T03:28:19.267Z,83.42
2023-02-27T03:30:53.359Z,82.63
2023-02-27T03:33:31.718Z,82.96
2023-02-27T03:36:04.121Z,83.27
2023-02-27T03:38:34.710Z,83.42
2023-02-27T03:41:37.522Z,83.06
2023-02-27T03:44:04.008Z,83.18
2023-02-27T03:46:30.752Z,82.93
2023-02-27T03:48:57.150Z,83.66
2023-02-27T03:51:25.301Z,82.11
2023-02-27T03:54:06.699Z,83.29
2023-02-27T03:56:40.690Z,82.31
2023-02-27T03:59:07.838Z,83.25
2023-02-27T04:01:34.456Z,82.21
2023-02-27T04:04:06.990Z,81.99
2023-02-27T04:06:54.833Z,82.32
2023-02-27T04:09:33.041Z,82.19
2023-02-27T04:12:26.788Z,82.28
2023-02-27T04:15:23.041Z,82.85
2023-02-27T04:18:15.605Z,83.34
2023-02-27T04:20:44.823Z,83.51
2023-02-27T04:23:23.552Z,82.55
2023-02-27T04:25:53.184Z,83.01
2023-02-27T04:28:36.158Z,83.60
2023-02-27T04:31:25.067Z,83.12
2023-02-27T04:33:56.290Z,83.10
2023-02-27T04:36:35.800Z,83.37
2023-02-27T04:39:08.458Z,82.46
2023-02-27T04:41:43.323Z,82.82
2023-02-27T04:44:12.419Z,82.78
2023-02-27T04:46:42.763Z,82.85
2023-02-27T04:49:21.506Z,83.87
2023-02-27T04:52:06.584Z,84.25
2023-02-27T04:54:46.697Z,82.74
2023-02-27T04:57:20.778Z,82.47
2023-02-27T04:59:52.546Z,81.26
2023-02-27T05:02:29.522Z,81.31
2023-02-27T05:05:00.504Z,81.81
2023-02-27T05:07:33.563Z,81.94
2023-02-27T05:10:05.662Z,81.85
2023-02-27T05:12:38.395Z,82.44
2023-02-27T05:15:12.107Z,82.60
2023-02-27T05:17:47.621Z,80.45
2023-02-27T05:20:15.737Z,81.14
2023-02-27T05:22:49.492Z,81.65
2023-02-27T05:25:26.884Z,81.82
2023-02-27T05:28:17.597Z,82.87
2023-02-27T05:30:53.026Z,82.95
2023-02-27T05:33:33.166Z,83.04
2023-02-27T05:36:02.287Z,83.27
2023-02-27T05:38:36.855Z,83.51
2023-02-27T05:41:14.392Z,82.95
2023-02-27T05:43:50.625Z,82.23
2023-02-27T05:46:23.996Z,82.38
2023-02-27T05:48:56.121Z,82.77
2023-02-27T05:51:28.034Z,82.76
2023-02-27T05:54:03.024Z,82.11
2023-02-27T05:56:32.639Z,83.63
2023-02-27T05:59:06.334Z,83.39
2023-02-27T06:01:33.398Z,83.23
2023-02-27T06:03:59.833Z,83.71
2023-02-27T06:06:26.657Z,82.96
2023-02-27T06:08:53.484Z,83.32
2023-02-27T06:11:19.882Z,83.18
2023-02-27T06:13:46.225Z,83.08
2023-02-27T06:16:14.525Z,83.39
2023-02-27T06:18:40.955Z,83.13
2023-02-27T06:21:07.282Z,83.07
2023-02-27T06:23:33.662Z,83.33
2023-02-27T06:26:00.249Z,83.38
2023-02-27T06:28:26.961Z,83.53
2023-02-27T06:30:57.194Z,83.69
2023-02-27T06:33:25.909Z,83.47
2023-02-27T06:35:52.606Z,83.25
2023-02-27T06:38:19.021Z,82.67
2023-02-27T06:40:45.372Z,84.20
2023-02-27T06:43:11.758Z,82.56
2023-02-27T06:45:38.219Z,82.15
2023-02-27T06:48:04.724Z,81.77
2023-02-27T06:50:31.197Z,82.52
2023-02-27T06:52:57.555Z,81.93
2023-02-27T06:55:25.611Z,81.66
2023-02-27T06:57:52.101Z,80.46
2023-02-27T07:00:19.028Z,80.04
2023-02-27T07:02:45.571Z,79.96
2023-02-27T07:05:12.166Z,79.58
2023-02-27T07:07:39.270Z,79.17
2023-02-27T07:10:08.318Z,80.05
2023-02-27T07:12:34.677Z,78.98
2023-02-27T07:15:01.207Z,79.67
2023-02-27T07:17:27.549Z,79.70
2023-02-27T07:19:54.548Z,79.65
2023-02-27T07:22:20.963Z,81.42
2023-02-27T07:24:47.320Z,80.32
2023-02-27T07:27:13.670Z,79.21
2023-02-27T07:29:40.214Z,78.01
2023-02-27T07:32:06.715Z,78.00
2023-02-27T07:34:33.427Z,78.72
2023-02-27T07:36:59.803Z,77.96
2023-02-27T07:39:26.144Z,78.55
2023-02-27T07:41:52.504Z,78.44
2023-02-27T07:44:19.226Z,77.77
2023-02-27T07:46:47.314Z,77.49
2023-02-27T07:49:14.048Z,78.11
2023-02-27T07:51:40.409Z,77.58
2023-02-27T07:54:06.761Z,77.67
2023-02-27T07:56:33.202Z,77.19
2023-02-27T07:58:59.581Z,77.49
2023-02-27T08:01:26.315Z,78.16
2023-02-27T08:03:52.733Z,78.94
2023-02-27T08:06:19.131Z,78.94
2023-02-27T08:08:45.743Z,77.37
2023-02-27T08:11:12.070Z,78.64
2023-02-27T08:16:25.279Z,76.62
2023-02-27T08:18:52.097Z,77.17
2023-02-27T08:21:18.676Z,76.94
2023-02-27T08:23:45.014Z,76.13
2023-02-27T08:26:11.370Z,76.42
2023-02-27T08:28:38.014Z,76.82
2023-02-27T08:31:04.589Z,77.18
2023-02-27T08:33:31.039Z,77.76
2023-02-27T08:35:57.510Z,77.19
2023-02-27T08:38:26.048Z,76.53
2023-02-27T08:40:55.622Z,76.18
2023-02-27T08:43:23.065Z,76.88
2023-02-27T08:45:49.979Z,77.51
2023-02-27T08:48:18.337Z,77.70
2023-02-27T08:50:46.246Z,77.64
2023-02-27T08:53:13.045Z,77.75
2023-02-27T08:55:39.538Z,77.30
2023-02-27T08:58:06.012Z,78.32
2023-02-27T09:00:32.838Z,76.72
2023-02-27T09:03:00.538Z,76.44
2023-02-27T09:05:27.650Z,77.11
2023-02-27T09:07:54.060Z,77.23
2023-02-27T09:10:20.428Z,76.46
2023-02-27T09:12:48.246Z,77.79
2023-02-27T09:15:15.266Z,77.59
2023-02-27T09:17:41.712Z,77.32
2023-02-27T09:20:09.543Z,76.81
2023-02-27T09:22:35.952Z,77.18
2023-02-27T09:25:02.556Z,76.84
2023-02-27T09:27:28.994Z,76.44
2023-02-27T09:29:56.356Z,76.86
2023-02-27T09:32:23.748Z,77.01
2023-02-27T09:34:50.272Z,77.10
2023-02-27T09:37:17.132Z,75.86
2023-02-27T09:39:44.701Z,76.17
2023-02-27T09:42:20.626Z,76.00
2023-02-27T09:44:53.813Z,76.62
2023-02-27T09:47:29.195Z,76.04
2023-02-27T09:50:02.991Z,76.96
2023-02-27T09:52:32.226Z,76.55
2023-02-27T09:54:59.016Z,75.65
2023-02-27T09:57:44.301Z,75.01
2023-02-27T10:00:33.439Z,75.73
2023-02-27T10:03:21.848Z,75.02
2023-02-27T10:06:09.105Z,75.13
2023-02-27T10:08:53.381Z,73.73
2023-02-27T10:11:53.994Z,73.98
2023-02-27T10:14:34.061Z,74.57
2023-02-27T10:17:03.613Z,73.66
2023-02-27T10:19:37.547Z,73.84
2023-02-27T10:22:08.014Z,73.98
2023-02-27T10:24:44.283Z,73.05
2023-02-27T10:27:17.565Z,74.46
2023-02-27T10:29:44.163Z,74.21
2023-02-27T10:32:17.089Z,74.73
2023-02-27T10:34:47.593Z,75.55
2023-02-27T10:37:17.469Z,74.42
2023-02-27T10:39:55.376Z,74.47
2023-02-27T10:42:24.291Z,75.34
2023-02-27T10:44:53.568Z,74.64
2023-02-27T10:47:23.784Z,75.99
2023-02-27T10:49:50.704Z,76.55
2023-02-27T10:52:17.877Z,77.69
2023-02-27T10:54:46.254Z,78.74
2023-02-27T10:57:33.468Z,79.50
2023-02-27T11:00:05.523Z,79.69
2023-02-27T11:02:48.807Z,79.15
2023-02-27T11:05:31.227Z,79.54
2023-02-27T11:08:10.449Z,79.04
2023-02-27T11:10:36.861Z,79.99
2023-02-27T11:13:18.446Z,79.02
2023-02-27T11:16:00.352Z,78.08
2023-02-27T11:18:29.328Z,79.41
2023-02-27T11:21:15.525Z,79.81
2023-02-27T11:23:50.865Z,79.43
2023-02-27T11:26:54.092Z,79.26
2023-02-27T11:29:20.928Z,77.52
2023-02-27T11:31:54.040Z,77.48
2023-02-27T11:34:27.645Z,75.85
2023-02-27T11:37:01.313Z,77.23
2023-02-27T11:39:30.613Z,76.74
2023-02-27T11:42:05.294Z,76.79
2023-02-27T11:44:50.100Z,76.95
2023-02-27T11:47:23.195Z,76.00
2023-02-27T11:50:08.867Z,75.91
2023-02-27T11:52:54.044Z,74.00
2023-02-27T11:55:27.798Z,74.05
2023-02-27T11:58:01.102Z,74.00
2023-02-27T12:00:33.156Z,73.12
2023-02-27T12:03:07.370Z,72.25
2023-02-27T12:05:51.545Z,72.90
2023-02-27T12:08:42.157Z,73.22
2023-02-27T12:11:22.609Z,72.88
2023-02-27T12:14:04.099Z,71.30
2023-02-27T12:16:42.264Z,72.14
2023-02-27T12:19:23.855Z,73.86
2023-02-27T12:21:56.575Z,72.85
2023-02-27T12:24:31.977Z,74.53
2023-02-27T12:27:19.026Z,74.19
2023-02-27T12:29:53.551Z,72.09
2023-02-27T12:32:26.005Z,72.50
2023-02-27T12:35:02.020Z,72.47
2023-02-27T12:37:29.813Z,71.96
2023-02-27T12:39:59.808Z,72.17
2023-02-27T12:42:50.316Z,70.44
2023-02-27T12:45:38.729Z,70.81
2023-02-27T12:48:39.405Z,71.62
2023-02-27T12:51:23.654Z,71.64
2023-02-27T12:53:59.961Z,72.89
2023-02-27T12:56:44.315Z,73.47
2023-02-27T12:59:48.819Z,72.83
2023-02-27T13:02:44.818Z,73.08
2023-02-27T13:05:38.662Z,72.70
2023-02-27T13:08:18.196Z,73.24
2023-02-27T13:10:56.513Z,73.42
2023-02-27T13:13:32.077Z,73.39
2023-02-27T13:16:07.180Z,72.63
2023-02-27T13:18:56.943Z,73.71
2023-02-27T13:21:36.590Z,73.05
2023-02-27T13:24:30.045Z,70.38
2023-02-27T13:27:03.257Z,71.98
2023-02-27T13:29:47.585Z,73.38
2023-02-27T13:32:44.158Z,73.75
2023-02-27T13:35:27.935Z,74.39
2023-02-27T13:38:07.541Z,69.94
2023-02-27T13:40:38.252Z,69.03
2023-02-27T13:43:27.500Z,65.36
2023-02-27T13:45:57.572Z,65.22
2023-02-27T13:48:39.835Z,63.91
2023-02-27T13:51:12.412Z,63.13
2023-02-27T13:53:39.026Z,62.78
2023-02-27T13:56:23.433Z,63.49
2023-02-27T13:58:53.530Z,62.84
2023-02-27T14:01:29.639Z,63.08
2023-02-27T14:04:03.437Z,63.19
2023-02-27T14:06:30.764Z,63.30
2023-02-27T14:09:12.794Z,64.38
2023-02-27T14:11:41.266Z,63.69
2023-02-27T14:14:20.797Z,62.93
2023-02-27T14:16:48.326Z,63.48
2023-02-27T14:19:17.938Z,59.22
2023-02-27T14:22:30.529Z,56.93
2023-02-27T14:25:21.974Z,56.41
2023-02-27T14:27:54.723Z,56.35
2023-02-27T14:30:33.800Z,55.66
2023-02-27T14:33:08.204Z,55.22
2023-02-27T14:35:35.921Z,55.74
2023-02-27T14:38:11.828Z,54.61
2023-02-27T14:40:48.748Z,55.85
2023-02-27T14:43:29.208Z,53.81
2023-02-27T14:45:56.112Z,55.11
2023-02-27T14:48:28.695Z,55.72
2023-02-27T14:50:57.953Z,54.37
2023-02-27T14:53:28.004Z,56.17
2023-02-27T14:55:57.054Z,57.63
2023-02-27T14:58:24.433Z,55.92
2023-02-27T15:01:09.887Z,57.03
2023-02-27T15:03:45.113Z,57.20
2023-02-27T15:06:24.180Z,57.51
2023-02-27T15:08:53.855Z,58.35
2023-02-27T15:11:22.049Z,57.70
2023-02-27T15:13:56.179Z,57.73
2023-02-27T15:16:35.629Z,59.52
2023-02-27T15:19:24.480Z,59.58
2023-02-27T15:22:00.178Z,59.72
2023-02-27T15:24:40.686Z,59.92
2023-02-27T15:27:21.623Z,60.06
2023-02-27T15:29:57.006Z,61.43
2023-02-27T15:32:39.580Z,62.81
2023-02-27T15:35:12.778Z,64.56
2023-02-27T15:37:50.641Z,65.21
2023-02-27T15:40:21.174Z,68.33
2023-02-27T15:42:48.068Z,68.54
2023-02-27T15:45:21.166Z,68.09
2023-02-27T15:47:48.155Z,68.77
2023-02-27T15:50:17.190Z,69.17
2023-02-27T15:52:51.213Z,69.13
2023-02-27T15:55:26.004Z,69.07
2023-02-27T15:58:02.411Z,69.64
2023-02-27T16:00:31.267Z,70.91
2023-02-27T16:02:59.250Z,72.00
2023-02-27T16:05:34.905Z,72.23
2023-02-27T16:08:05.746Z,73.00
2023-02-27T16:10:40.313Z,72.39
2023-02-27T16:13:33.427Z,72.44
2023-02-27T16:16:21.881Z,73.35
2023-02-27T16:18:50.092Z,73.25
2023-02-27T16:21:22.487Z,73.10
2023-02-27T16:23:49.828Z,72.64
2023-02-27T16:26:36.380Z,72.64
2023-02-27T16:29:17.749Z,73.13
2023-02-27T16:31:56.622Z,72.05
2023-02-27T16:34:45.160Z,73.29
2023-02-27T16:37:27.004Z,73.84
2023-02-27T16:39:54.376Z,75.27
2023-02-27T16:42:21.307Z,73.39
2023-02-27T16:44:49.059Z,75.00
2023-02-27T16:47:15.510Z,74.30
2023-02-27T16:49:44.106Z,75.98
2023-02-27T16:52:11.431Z,75.07
2023-02-27T16:54:37.937Z,75.24
2023-02-27T16:57:04.311Z,76.40
2023-02-27T16:59:36.209Z,79.29
2023-02-27T17:02:05.554Z,76.81
2023-02-27T17:04:32.246Z,73.99
2023-02-27T17:07:00.299Z,75.05
2023-02-27T17:09:28.133Z,74.15
2023-02-27T17:11:55.384Z,76.18
2023-02-27T17:14:22.779Z,72.58
2023-02-27T17:16:49.512Z,74.16
2023-02-27T17:19:16.369Z,75.40
2023-02-27T17:21:42.898Z,75.60
2023-02-27T17:24:09.323Z,76.37
2023-02-27T17:26:35.943Z,76.16
2023-02-27T17:29:03.159Z,76.50
2023-02-27T17:31:29.937Z,76.00
2023-02-27T17:33:56.481Z,76.57
2023-02-27T17:36:24.069Z,77.00
2023-02-27T17:38:55.756Z,76.69
2023-02-27T17:41:22.280Z,75.37
2023-02-27T17:43:53.767Z,73.27
2023-02-27T17:46:20.251Z,72.01
2023-02-27T17:48:46.747Z,71.18
2023-02-27T17:51:15.438Z,70.75
2023-02-27T17:53:42.585Z,72.09
2023-02-27T17:56:10.011Z,71.72
2023-02-27T17:58:36.480Z,71.97
2023-02-27T18:01:13.656Z,71.77
2023-02-27T18:03:40.956Z,71.81
2023-02-27T18:06:07.567Z,73.33
2023-02-27T18:08:34.239Z,73.36
2023-02-27T18:11:01.327Z,74.39
2023-02-27T18:13:28.187Z,74.37
2023-02-27T18:15:56.106Z,75.00
2023-02-27T18:18:23.724Z,74.46
2023-02-27T18:21:03.749Z,74.80
2023-02-27T18:23:30.400Z,75.92
2023-02-27T18:25:57.941Z,73.73
2023-02-27T18:28:24.543Z,75.81
2023-02-27T18:30:51.291Z,76.42
2023-02-27T18:33:19.519Z,75.41
2023-02-27T18:35:47.151Z,75.54
2023-02-27T18:38:13.884Z,74.88
2023-02-27T18:40:40.366Z,75.79
2023-02-27T18:43:07.596Z,76.17
2023-02-27T18:45:34.071Z,75.96
2023-02-27T18:48:00.442Z,77.32
2023-02-27T18:50:27.673Z,76.73
2023-02-27T18:52:56.044Z,73.26
2023-02-27T18:55:22.520Z,73.83
2023-02-27T18:57:50.872Z,74.52
2023-02-27T19:00:19.053Z,74.81
2023-02-27T19:02:45.513Z,74.81
2023-02-27T19:05:14.403Z,75.72
2023-02-27T19:07:41.458Z,78.16
2023-02-27T19:10:09.014Z,76.34
2023-02-27T19:12:35.889Z,74.60
2023-02-27T19:15:03.308Z,75.97
2023-02-27T19:17:29.707Z,75.63
2023-02-27T19:19:56.074Z,75.56
2023-02-27T19:22:22.481Z,72.74
2023-02-27T19:24:49.746Z,74.71
2023-02-27T19:27:17.256Z,74.29
2023-02-27T19:29:43.737Z,73.82
2023-02-27T19:32:10.212Z,74.51
2023-02-27T19:34:36.630Z,74.54
2023-02-27T19:37:03.066Z,74.30
2023-02-27T19:39:29.450Z,74.97
2023-02-27T19:41:56.449Z,74.86
2023-02-27T19:44:23.220Z,75.52
2023-02-27T19:46:52.099Z,75.45
2023-02-27T19:49:20.499Z,75.23
2023-02-27T19:51:47.332Z,75.57
2023-02-27T19:54:15.520Z,75.86
2023-02-27T19:56:42.699Z,76.13
2023-02-27T19:59:11.211Z,77.19
2023-02-27T20:01:38.935Z,76.94
2023-02-27T20:04:06.603Z,76.46
2023-02-27T20:06:41.952Z,76.59
2023-02-27T20:09:11.429Z,77.04
2023-02-27T20:11:37.870Z,77.35
2023-02-27T20:14:04.280Z,76.92
2023-02-27T20:16:34.411Z,77.20
2023-02-27T20:19:01.362Z,77.82
2023-02-27T20:21:28.804Z,78.81
2023-02-27T20:23:55.922Z,78.79
2023-02-27T20:26:33.742Z,78.03
2023-02-27T20:29:06.736Z,78.56
2023-02-27T20:31:35.402Z,79.32
2023-02-27T20:34:01.975Z,78.77
2023-02-27T20:36:28.536Z,79.00
2023-02-27T20:38:55.473Z,79.08
2023-02-27T20:41:22.764Z,79.08
2023-02-27T20:43:49.724Z,78.92
2023-02-27T20:46:22.626Z,78.87
2023-02-27T20:48:49.594Z,78.78
2023-02-27T20:51:19.748Z,79.05
2023-02-27T20:53:48.349Z,79.51
2023-02-27T20:56:14.894Z,79.08
2023-02-27T20:58:41.263Z,79.23
2023-02-27T21:01:11.571Z,79.25
2023-02-27T21:03:39.732Z,79.29
2023-02-27T21:06:08.561Z,78.97
2023-02-27T21:08:37.213Z,79.46
2023-02-27T21:11:11.857Z,79.42
2023-02-27T21:13:38.701Z,79.26
2023-02-27T21:16:07.406Z,79.35
2023-02-27T21:18:34.123Z,79.64
2023-02-27T21:21:05.963Z,79.46
2023-02-27T21:23:34.332Z,79.61
2023-02-27T21:26:00.696Z,79.48
2023-02-27T21:28:27.078Z,78.72
2023-02-27T21:30:54.672Z,79.07
2023-02-27T21:33:22.268Z,79.06
2023-02-27T21:35:49.039Z,79.55
2023-02-27T21:38:16.364Z,79.04
2023-02-27T21:40:42.918Z,80.00
2023-02-27T21:43:09.658Z,79.59
2023-02-27T21:45:41.450Z,79.63
2023-02-27T21:48:08.184Z,79.97
2023-02-27T21:50:35.907Z,78.73
2023-02-27T21:53:02.235Z,79.02
2023-02-27T21:55:28.616Z,79.03
2023-02-27T21:57:55.029Z,78.60
2023-02-27T22:00:23.122Z,78.93
2023-02-27T22:02:49.580Z,79.07
2023-02-27T22:05:15.963Z,79.58
2023-02-27T22:07:42.322Z,78.70
2023-02-27T22:10:09.434Z,78.98
2023-02-27T22:12:35.825Z,78.64
2023-02-27T22:15:02.380Z,78.91
2023-02-27T22:17:28.731Z,78.73
2023-02-27T22:19:55.225Z,79.36
2023-02-27T22:22:21.615Z,79.17
2023-02-27T22:24:47.983Z,79.51
2023-02-27T22:27:14.382Z,79.62
2023-02-27T22:29:42.262Z,79.93
2023-02-27T22:32:09.438Z,79.91
2023-02-27T22:34:35.844Z,80.12
2023-02-27T22:37:02.526Z,80.24
2023-02-27T22:39:28.897Z,80.60
2023-02-27T22:41:56.841Z,80.95
2023-02-27T22:44:23.482Z,80.22
2023-02-27T22:46:50.104Z,79.87
2023-02-27T22:49:22.126Z,80.52
2023-02-27T22:51:51.042Z,80.45
2023-02-27T22:54:20.160Z,80.49
2023-02-27T22:56:49.314Z,80.65
2023-02-27T22:59:16.648Z,79.55
2023-02-27T23:01:43.114Z,80.11
2023-02-27T23:04:11.284Z,80.70
2023-02-27T23:06:40.048Z,80.33
2023-02-27T23:09:08.873Z,79.88
2023-02-27T23:11:35.281Z,79.68
2023-02-27T23:14:01.791Z,79.35
2023-02-27T23:16:28.330Z,79.46
2023-02-27T23:18:57.578Z,79.22
2023-02-27T23:21:29.499Z,79.16
2023-02-27T23:23:58.004Z,79.70
2023-02-27T23:26:28.258Z,79.53
2023-02-27T23:28:55.748Z,79.89
2023-02-27T23:31:22.585Z,79.66
2023-02-27T23:33:48.983Z,79.22
2023-02-27T23:36:15.440Z,78.72
2023-02-27T23:38:42.949Z,78.16
2023-02-27T23:41:09.919Z,78.38
2023-02-27T23:43:36.502Z,78.41
2023-02-27T23:46:12.549Z,78.39
2023-02-27T23:48:39.662Z,77.69
2023-02-27T23:51:07.834Z,77.29
2023-02-27T23:53:35.468Z,77.71
2023-02-27T23:56:12.409Z,77.19
2023-02-27T23:58:38.779Z,77.43
